Time;durP1;ratioP1;P1;durP2;ratioP2;P2;SDS_P1;SDS_P2;PMS_P1;PMS_P2;Temp;Humidity;BMP_temperature;BMP_pressure;BME280_temperature;BME280_humidity;BME280_pressure;Samples;Min_cycle;Max_cycle;Signal;HPM_P1;HPM_P2
2021/03/29 00:01:04;;;;;;;21.40;4.82;;;;;;;19.37;39.73;100939.34;5018569;28;20041;-65
2021/03/29 00:03:32;;;;;;;18.05;5.18;;;;;;;19.29;39.27;100921.19;5020016;28;20057;-65
2021/03/29 00:05:58;;;;;;;8.85;4.38;;;;;;;19.45;39.29;100944.19;5005858;28;20045;-68
2021/03/29 00:08:28;;;;;;;11.48;3.35;;;;;;;19.42;39.07;100933.53;5018470;28;20045;-65
2021/03/29 00:10:56;;;;;;;11.63;5.03;;;;;;;19.48;38.84;100935.03;5024783;28;20465;-64
2021/03/29 00:13:26;;;;;;;12.55;4.57;;;;;;;19.52;38.85;100929.53;5017888;28;20057;-69
2021/03/29 00:15:54;;;;;;;9.07;4.82;;;;;;;19.49;38.95;100925.38;5019255;28;20410;-68
2021/03/29 00:18:22;;;;;;;14.43;5.85;;;;;;;19.47;38.57;100927.69;5022841;28;20038;-68
2021/03/29 00:21:06;;;;;;;15.40;4.72;;;;;;;19.40;38.95;100931.03;5025134;28;20042;-65
2021/03/29 00:23:33;;;;;;;9.25;4.55;;;;;;;19.32;39.03;100923.38;5021469;28;20135;-63
2021/03/29 00:26:00;;;;;;;6.97;4.13;;;;;;;19.28;38.48;100924.34;5022217;28;20042;-67
2021/03/29 00:28:26;;;;;;;9.90;3.92;;;;;;;19.32;38.40;100925.38;5020392;28;20409;-65
2021/03/29 00:30:53;;;;;;;8.50;2.90;;;;;;;19.35;37.80;100916.19;5019066;28;20414;-65
2021/03/29 00:33:23;;;;;;;12.23;3.45;;;;;;;19.39;38.06;100912.38;5019803;28;20565;-66
2021/03/29 00:35:49;;;;;;;;;;;;;;;19.47;37.88;100924.88;5021071;28;20049;-67
2021/03/29 00:38:18;;;;;;;12.18;3.85;;;;;;;19.41;38.48;100918.53;5013581;28;19927;-67
2021/03/29 00:40:58;;;;;;;12.30;4.03;;;;;;;19.22;38.97;100908.69;5020318;28;20056;-67
2021/03/29 00:43:31;;;;;;;10.73;4.38;;;;;;;19.16;38.91;100917.31;5018606;28;20050;-68
2021/03/29 00:45:59;;;;;;;15.40;4.68;;;;;;;19.13;39.42;100911.50;5007487;28;20041;-66
2021/03/29 00:48:28;;;;;;;10.93;4.77;;;;;;;19.06;39.69;100911.97;5017865;28;20132;-68
2021/03/29 00:51:24;;;;;;;15.20;5.25;;;;;;;19.02;39.14;100904.47;5020675;28;20038;-68
2021/03/29 00:53:54;;;;;;;12.00;4.77;;;;;;;19.06;38.99;100909.16;5019243;28;20051;-67
2021/03/29 00:56:22;;;;;;;11.27;6.73;;;;;;;18.91;40.14;100881.31;5015281;28;20052;-67
2021/03/29 00:58:51;;;;;;;21.37;7.77;;;;;;;18.98;40.94;100912.78;5014355;28;20042;-67
2021/03/29 01:01:19;;;;;;;17.37;7.63;;;;;;;18.81;41.37;100921.22;5004002;28;20574;-65
2021/03/29 01:03:54;;;;;;;13.37;5.90;;;;;;;18.68;40.45;100909.66;5020483;28;20490;-70
2021/03/29 01:06:24;;;;;;;11.93;7.00;;;;;;;18.63;41.30;100909.81;5022080;28;20069;-67
2021/03/29 01:08:54;;;;;;;15.53;5.13;;;;;;;18.52;41.09;100907.59;5018266;28;20038;-65
2021/03/29 01:11:27;;;;;;;11.57;5.50;;;;;;;18.41;40.94;100896.56;5021803;28;20164;-65
2021/03/29 01:14:06;;;;;;;18.73;5.10;;;;;;;18.44;40.86;100900.75;5017845;28;20050;-65
2021/03/29 01:16:35;;;;;;;;;;;;;;;18.31;41.46;100904.50;5025496;28;20128;-63
2021/03/29 01:19:09;;;;;;;12.10;5.70;;;;;;;18.12;42.65;100904.69;5023864;28;19927;-62
2021/03/29 01:21:54;;;;;;;11.53;4.87;;;;;;;17.86;43.77;100901.72;5027514;28;20045;-62
2021/03/29 01:24:29;;;;;;;16.83;5.67;;;;;;;17.66;44.19;100901.03;5019545;28;20052;-64
2021/03/29 01:26:56;;;;;;;13.10;4.73;;;;;;;17.51;44.83;100902.25;5025345;28;20160;-66
2021/03/29 01:29:31;;;;;;;11.70;3.77;;;;;;;17.38;45.35;100885.34;5022662;28;20121;-65
2021/03/29 01:32:04;;;;;;;9.87;4.13;;;;;;;17.24;45.54;100886.22;5024562;28;20060;-64
2021/03/29 01:34:33;;;;;;;15.37;5.27;;;;;;;17.23;46.05;100893.03;5025228;28;20050;-67
2021/03/29 01:37:01;;;;;;;9.07;3.58;;;;;;;17.20;45.72;100892.81;5017298;28;20046;-66
2021/03/29 01:39:28;;;;;;;11.87;4.17;;;;;;;17.21;45.52;100891.66;5026873;28;20124;-67
2021/03/29 01:41:56;;;;;;;6.33;3.83;;;;;;;17.22;45.52;100887.69;5025451;28;20547;-66
2021/03/29 01:44:23;;;;;;;7.33;3.77;;;;;;;17.10;45.37;100874.13;5030152;28;20447;-67
2021/03/29 01:46:51;;;;;;;5.80;3.60;;;;;;;17.24;44.92;100889.03;5023389;28;20085;-65
2021/03/29 01:49:19;;;;;;;8.83;4.50;;;;;;;17.29;44.73;100886.06;5019222;28;20052;-66
2021/03/29 01:51:47;;;;;;;12.03;4.23;;;;;;;17.24;44.27;100860.81;5026918;28;20079;-64
2021/03/29 01:54:14;;;;;;;9.07;3.47;;;;;;;17.36;44.35;100865.06;5011216;28;20526;-65
2021/03/29 01:56:41;;;;;;;12.27;3.80;;;;;;;17.49;43.99;100875.47;5024474;28;20049;-66
2021/03/29 01:59:09;;;;;;;10.97;4.60;;;;;;;17.53;43.68;100870.84;5018898;28;20096;-65
2021/03/29 02:01:35;;;;;;;11.90;3.93;;;;;;;17.10;43.70;100800.75;5021615;28;20042;-66
2021/03/29 02:04:03;;;;;;;12.17;3.50;;;;;;;17.53;43.54;100873.66;5025302;28;20056;-66
2021/03/29 02:06:30;;;;;;;11.13;3.90;;;;;;;17.49;43.75;100876.31;5022461;28;20050;-65
2021/03/29 02:08:59;;;;;;;15.47;3.40;;;;;;;17.42;43.89;100858.97;5021086;28;20128;-65
2021/03/29 02:11:26;;;;;;;8.90;4.10;;;;;;;17.40;43.84;100866.94;5016312;28;20037;-65
2021/03/29 02:13:54;;;;;;;8.73;3.10;;;;;;;17.35;43.96;100867.03;5017000;28;20060;-65
2021/03/29 02:16:21;;;;;;;6.70;3.60;;;;;;;17.32;44.16;100864.03;5025265;28;20144;-65
2021/03/29 02:18:50;;;;;;;12.67;3.87;;;;;;;17.25;44.31;100858.81;5029488;28;20050;-67
2021/03/29 02:21:25;;;;;;;9.63;4.33;;;;;;;17.16;44.68;100860.72;5024215;28;20463;-64
2021/03/29 02:23:58;;;;;;;10.00;2.60;;;;;;;17.10;45.03;100859.19;5016843;28;20583;-65
2021/03/29 02:26:27;;;;;;;11.27;4.20;;;;;;;16.95;45.49;100861.19;5023665;28;20126;-65
2021/03/29 02:28:55;;;;;;;5.23;2.57;;;;;;;16.86;45.59;100859.44;5018591;28;20052;-68
2021/03/29 02:31:25;;;;;;;6.90;3.60;;;;;;;16.77;45.72;100856.50;5021181;28;20057;-63
2021/03/29 02:33:52;;;;;;;6.03;2.78;;;;;;;16.74;45.92;100859.94;5022359;28;20482;-64
2021/03/29 02:36:20;;;;;;;15.43;4.80;;;;;;;16.72;45.76;100843.34;5020497;28;20045;-65
2021/03/29 02:38:48;;;;;;;9.70;3.07;;;;;;;16.78;45.44;100844.91;5027316;28;20049;-65
2021/03/29 02:41:16;;;;;;;9.03;3.17;;;;;;;16.81;45.20;100838.63;5024608;28;20049;-64
2021/03/29 02:43:47;;;;;;;6.53;3.27;;;;;;;16.91;44.74;100831.94;5025619;28;20081;-65
2021/03/29 02:46:15;;;;;;;7.27;2.93;;;;;;;17.00;44.50;100834.84;5023924;28;20051;-65
2021/03/29 02:48:44;;;;;;;9.37;4.27;;;;;;;17.06;44.08;100836.41;5021405;28;20041;-69
2021/03/29 02:51:13;;;;;;;11.17;4.17;;;;;;;17.08;43.82;100825.63;5022438;28;20510;-71
2021/03/29 02:53:48;;;;;;;11.10;4.25;;;;;;;17.17;43.81;100828.53;5020309;28;20148;-70
2021/03/29 02:56:20;;;;;;;12.23;4.60;;;;;;;17.21;43.75;100824.75;5021556;28;20050;-70
2021/03/29 02:58:52;;;;;;;14.00;3.23;;;;;;;17.21;43.45;100821.09;5021556;28;20063;-69
2021/03/29 03:01:23;;;;;;;8.57;3.47;;;;;;;17.20;43.36;100814.63;5021683;28;20053;-69
2021/03/29 03:03:53;;;;;;;8.63;3.33;;;;;;;17.26;42.88;100816.19;5015309;28;20053;-70
2021/03/29 03:06:22;;;;;;;11.20;3.35;;;;;;;17.33;42.68;100812.06;5024873;28;20478;-70
2021/03/29 03:08:49;;;;;;;6.40;3.70;;;;;;;17.47;41.84;100810.00;5015732;28;20491;-69
2021/03/29 03:11:16;;;;;;;11.67;4.23;;;;;;;17.52;41.69;100810.72;5025744;28;20414;-70
2021/03/29 03:13:44;;;;;;;5.20;2.97;;;;;;;17.59;41.43;100804.63;5017012;28;20055;-69
2021/03/29 03:16:11;;;;;;;7.40;2.53;;;;;;;17.57;41.66;100801.28;5023492;28;20414;-70
2021/03/29 03:18:42;;;;;;;12.90;3.20;;;;;;;17.49;41.24;100780.31;5022512;28;20151;-69
2021/03/29 03:21:08;;;;;;;12.37;3.67;;;;;;;17.57;41.44;100795.63;5019179;28;20050;-69
2021/03/29 03:23:35;;;;;;;6.03;2.20;;;;;;;17.46;41.58;100783.75;5017726;28;20054;-68
2021/03/29 03:26:01;;;;;;;6.03;2.70;;;;;;;17.35;42.07;100790.84;5021831;28;20116;-68
2021/03/29 03:28:28;;;;;;;18.73;4.10;;;;;;;17.40;42.06;100787.91;5022494;28;20147;-74
2021/03/29 03:30:57;;;;;;;5.17;2.47;;;;;;;17.31;42.18;100786.97;5021409;28;20049;-67
2021/03/29 03:33:29;;;;;;;5.20;2.50;;;;;;;17.23;42.43;100793.38;5018648;28;20148;-68
2021/03/29 03:35:57;;;;;;;5.67;2.50;;;;;;;17.18;42.85;100791.53;5019387;28;20065;-70
2021/03/29 03:38:31;;;;;;;11.17;3.43;;;;;;;17.14;42.81;100796.16;5014441;28;20545;-62
2021/03/29 03:41:10;;;;;;;6.43;1.90;;;;;;;16.98;43.28;100783.53;5023804;28;20042;-68
2021/03/29 03:43:43;;;;;;;8.00;3.67;;;;;;;16.98;43.32;100787.19;5020179;28;20054;-62
2021/03/29 03:46:16;;;;;;;14.33;3.03;;;;;;;16.91;43.27;100771.88;5021357;28;20047;-63
2021/03/29 03:48:44;;;;;;;4.57;2.57;;;;;;;17.02;43.14;100790.22;5018298;28;20073;-66
2021/03/29 03:51:12;;;;;;;5.03;1.77;;;;;;;17.04;42.75;100779.47;5023399;28;20559;-65
2021/03/29 03:53:39;;;;;;;5.20;2.67;;;;;;;17.12;42.52;100787.16;5018028;28;20079;-64
2021/03/29 03:56:07;;;;;;;9.43;3.10;;;;;;;17.23;42.11;100777.31;5019974;28;20051;-63
2021/03/29 03:58:33;;;;;;;2.10;1.70;;;;;;;17.23;42.26;100780.13;5017623;28;20038;-62
2021/03/29 04:01:00;;;;;;;11.13;3.00;;;;;;;17.23;42.20;100782.94;5022760;28;20045;-62
2021/03/29 04:03:28;;;;;;;7.40;2.60;;;;;;;17.24;42.35;100784.59;5020341;28;20050;-63
2021/03/29 04:05:56;;;;;;;5.23;2.70;;;;;;;17.28;42.09;100777.16;5021200;28;21567;-63
2021/03/29 04:08:39;;;;;;;3.90;2.43;;;;;;;17.32;41.37;100773.69;5022086;28;20127;-66
2021/03/29 04:11:07;;;;;;;11.30;2.40;;;;;;;17.49;40.84;100782.28;5022246;28;20128;-64
2021/03/29 04:13:34;;;;;;;5.57;2.63;;;;;;;17.58;40.88;100780.38;5021767;28;20140;-64
2021/03/29 04:16:02;;;;;;;4.87;2.80;;;;;;;17.66;40.66;100773.94;5022252;28;20045;-64
2021/03/29 04:18:29;;;;;;;13.87;2.97;;;;;;;17.81;40.01;100769.91;5025023;28;20073;-65
2021/03/29 04:20:57;;;;;;;5.13;2.13;;;;;;;17.83;39.44;100755.44;5016595;28;20041;-65
2021/03/29 04:23:25;;;;;;;3.07;2.00;;;;;;;18.01;39.30;100771.31;5016680;28;20061;-64
2021/03/29 04:25:53;;;;;;;5.17;2.20;;;;;;;18.04;38.97;100762.19;5023326;28;20512;-63
2021/03/29 04:28:20;;;;;;;9.47;2.90;;;;;;;18.18;38.95;100768.56;5023290;28;20416;-63
2021/03/29 04:30:47;;;;;;;15.67;3.20;;;;;;;18.05;38.77;100743.25;5019336;28;20533;-62
2021/03/29 04:33:14;;;;;;;6.13;2.20;;;;;;;18.02;38.99;100744.75;5010323;28;20421;-63
2021/03/29 04:35:41;;;;;;;4.90;2.23;;;;;;;18.06;38.50;100748.59;5020411;28;20726;-62
2021/03/29 04:38:07;;;;;;;6.73;3.00;;;;;;;18.06;38.90;100759.06;5019860;28;20078;-64
2021/03/29 04:40:34;;;;;;;3.87;2.10;;;;;;;18.18;38.55;100764.91;5017228;28;20053;-64
2021/03/29 04:43:01;;;;;;;7.57;2.47;;;;;;;18.13;38.56;100760.25;5019948;28;20522;-62
2021/03/29 04:45:28;;;;;;;9.43;2.97;;;;;;;18.20;38.31;100760.59;5017885;28;20100;-62
2021/03/29 04:47:54;;;;;;;9.13;3.00;;;;;;;18.22;38.53;100758.28;5024068;28;20070;-63
2021/03/29 04:50:23;;;;;;;9.93;2.03;;;;;;;18.15;38.33;100749.47;5022438;28;20052;-63
2021/03/29 04:52:52;;;;;;;11.23;4.57;;;;;;;18.15;38.25;100746.63;5009166;23;20504;-67
2021/03/29 04:55:21;;;;;;;5.77;3.23;;;;;;;18.20;38.38;100754.13;4974034;28;20055;-66
2021/03/29 04:57:48;;;;;;;5.70;2.43;;;;;;;18.17;38.45;100746.28;4993404;28;20069;-82
2021/03/29 05:00:14;;;;;;;3.67;2.03;;;;;;;18.17;38.56;100747.13;4980899;28;20059;-75
2021/03/29 05:02:44;;;;;;;6.30;2.60;;;;;;;18.13;38.67;100748.13;4991886;28;20076;-75
2021/03/29 05:05:11;;;;;;;6.40;3.35;;;;;;;18.18;38.25;100745.94;4992080;28;20046;-79
2021/03/29 05:07:39;;;;;;;9.20;2.97;;;;;;;18.24;37.99;100749.47;4991680;28;20439;-79
2021/03/29 05:10:10;;;;;;;10.17;3.03;;;;;;;18.19;38.43;100750.47;4991559;28;20434;-78
2021/03/29 05:12:36;;;;;;;8.33;2.77;;;;;;;18.19;38.61;100746.81;4984749;28;20046;-77
2021/03/29 05:15:07;;;;;;;7.03;2.53;;;;;;;18.15;38.63;100752.28;4970018;28;20129;-78
2021/03/29 05:17:34;;;;;;;6.90;3.10;;;;;;;18.01;38.64;100745.88;4992512;28;20644;-80
2021/03/29 05:20:02;;;;;;;12.00;3.00;;;;;;;17.89;38.98;100725.91;4984072;28;20671;-80
2021/03/29 05:22:29;;;;;;;6.63;2.90;;;;;;;17.96;38.66;100752.53;4988273;28;20095;-73
2021/03/29 05:24:55;;;;;;;6.93;3.07;;;;;;;17.97;38.73;100757.00;4986028;28;20046;-75
2021/03/29 05:27:22;;;;;;;14.60;3.23;;;;;;;18.00;38.88;100767.66;4991045;28;20447;-75
2021/03/29 05:29:49;;;;;;;5.90;3.00;;;;;;;18.01;39.14;100762.84;4992309;28;20042;-69
2021/03/29 05:32:21;;;;;;;6.10;2.43;;;;;;;17.90;39.31;100764.28;4991785;28;20540;-74
2021/03/29 05:34:50;;;;;;;10.10;3.50;;;;;;;17.80;39.65;100764.56;4989448;28;20054;-69
2021/03/29 05:37:18;;;;;;;12.80;3.45;;;;;;;17.72;39.64;100767.00;4990917;28;20064;-72
2021/03/29 05:39:49;;;;;;;5.93;3.43;;;;;;;17.52;39.99;100753.41;4991148;28;20043;-69
2021/03/29 05:42:17;;;;;;;11.93;3.50;;;;;;;17.37;40.33;100749.00;4991439;28;20101;-67
2021/03/29 05:44:45;;;;;;;10.27;3.17;;;;;;;17.37;40.14;100748.19;4991630;28;20046;-68
2021/03/29 05:47:12;;;;;;;6.40;2.47;;;;;;;17.43;40.14;100753.34;4991137;28;20049;-66
2021/03/29 05:49:38;;;;;;;5.50;3.83;;;;;;;17.19;40.18;100733.09;4992135;28;20051;-75
2021/03/29 05:52:04;;;;;;;2.30;1.83;;;;;;;17.39;39.98;100771.25;4989870;28;20770;-68
2021/03/29 05:54:32;;;;;;;5.57;2.40;;;;;;;17.39;39.90;100772.09;4991727;28;20554;-67
2021/03/29 05:56:59;;;;;;;0.90;0.73;;;;;;;17.29;40.02;100763.88;4988737;28;20129;-78
2021/03/29 05:59:27;;;;;;;1.10;0.90;;;;;;;17.40;39.57;100781.38;4992120;28;20057;-70
2021/03/29 06:01:56;;;;;;;6.37;2.07;;;;;;;17.53;39.04;100774.84;4990568;28;20042;-74
2021/03/29 06:04:46;;;;;;;4.28;2.50;;;;;;;17.52;39.03;100785.31;4991332;28;20428;-78
2021/03/29 06:07:23;;;;;;;2.80;1.27;;;;;;;17.49;39.30;100776.66;4989353;28;20042;-66
2021/03/29 06:09:52;;;;;;;3.93;1.73;;;;;;;17.51;39.14;100777.16;4991158;28;20557;-70
2021/03/29 06:12:21;;;;;;;1.92;1.50;;;;;;;17.48;39.42;100778.63;4989805;28;20547;-69
2021/03/29 06:14:59;;;;;;;7.97;3.47;;;;;;;17.39;39.39;100780.56;4982412;28;20415;-66
2021/03/29 06:17:26;;;;;;;2.27;1.23;;;;;;;17.33;39.51;100781.00;4992054;28;20046;-64
2021/03/29 06:19:53;;;;;;;5.63;2.87;;;;;;;17.33;39.54;100779.00;4989208;28;20042;-63
2021/03/29 06:22:23;;;;;;;1.67;1.23;;;;;;;17.29;39.61;100787.28;4989945;28;20042;-63
2021/03/29 06:25:02;;;;;;;10.32;1.70;;;;;;;17.27;39.79;100783.97;4988616;28;20181;-63
2021/03/29 06:27:43;;;;;;;11.87;2.37;;;;;;;17.21;39.75;100788.06;4987318;28;20525;-64
2021/03/29 06:30:23;;;;;;;2.33;1.53;;;;;;;17.21;39.59;100796.53;4984600;28;20049;-63
2021/03/29 06:33:08;;;;;;;7.55;1.83;;;;;;;17.24;39.41;100795.91;4987091;28;20046;-65
2021/03/29 06:35:51;;;;;;;3.37;1.97;;;;;;;17.29;39.72;100798.56;4982832;28;20058;-63
2021/03/29 06:38:20;;;;;;;4.60;1.20;;;;;;;17.35;39.14;100795.66;4967356;28;20114;-63
2021/03/29 06:41:04;;;;;;;5.93;2.27;;;;;;;17.41;39.09;100791.53;4990707;28;20476;-64
2021/03/29 06:43:35;;;;;;;5.87;2.00;;;;;;;17.49;39.13;100800.06;4991046;28;20483;-63
2021/03/29 06:46:07;;;;;;;4.40;1.73;;;;;;;17.53;38.71;100791.78;4989948;28;20051;-62
2021/03/29 06:48:35;;;;;;;9.90;3.53;;;;;;;17.66;38.38;100784.41;4988236;28;20125;-64
2021/03/29 06:51:08;;;;;;;5.25;2.13;;;;;;;17.81;38.42;100791.66;4986918;28;20088;-64
2021/03/29 06:53:37;;;;;;;6.90;3.43;;;;;;;17.91;37.86;100800.69;4988646;28;20061;-63
2021/03/29 06:56:26;;;;;;;2.97;2.17;;;;;;;18.14;37.29;100795.00;4989878;28;20046;-63
2021/03/29 06:58:57;;;;;;;7.93;2.83;;;;;;;18.23;36.97;100782.56;4976451;28;20046;-64
2021/03/29 07:01:25;;;;;;;6.10;2.90;;;;;;;18.41;36.56;100788.28;4987056;28;20054;-62
2021/03/29 07:03:55;;;;;;;9.67;2.67;;;;;;;18.46;36.53;100786.16;4987444;28;20439;-62
2021/03/29 07:06:26;;;;;;;8.07;2.70;;;;;;;18.63;36.22;100802.34;4984857;28;20046;-62
2021/03/29 07:09:05;;;;;;;8.00;2.92;;;;;;;18.68;36.24;100796.50;4983135;28;20044;-63
2021/03/29 07:11:32;;;;;;;11.53;2.60;;;;;;;18.65;35.95;100801.97;4988460;28;20487;-63
2021/03/29 07:13:59;;;;;;;13.73;3.60;;;;;;;18.69;35.66;100778.34;4988485;28;20499;-63
2021/03/29 07:16:27;;;;;;;8.47;2.47;;;;;;;18.87;35.97;100792.56;4987732;28;20082;-62
2021/03/29 07:19:08;;;;;;;6.43;3.83;;;;;;;18.80;35.58;100790.22;4986386;28;20042;-63
2021/03/29 07:21:36;;;;;;;9.40;2.87;;;;;;;18.87;35.68;100789.72;4985208;28;20050;-63
2021/03/29 07:24:08;;;;;;;6.57;2.70;;;;;;;18.84;35.68;100779.94;4986793;28;20132;-61
2021/03/29 07:26:57;;;;;;;7.40;2.27;;;;;;;18.96;35.75;100798.25;4986916;28;20057;-64
2021/03/29 07:29:26;;;;;;;10.33;3.23;;;;;;;18.96;35.43;100801.91;4987657;28;20050;-62
2021/03/29 07:32:16;;;;;;;8.65;3.45;;;;;;;18.84;35.52;100779.09;4990540;28;20058;-64
2021/03/29 07:34:47;;;;;;;6.35;3.50;;;;;;;19.15;35.27;100805.25;4987132;28;20046;-61
2021/03/29 07:37:47;;;;;;;7.95;2.92;;;;;;;19.18;35.49;100804.59;4991003;28;20138;-63
2021/03/29 07:40:22;;;;;;;;;;;;;;;19.13;35.56;100799.09;4981154;28;20050;-65
2021/03/29 07:42:51;;;;;;;13.73;4.03;;;;;;;19.20;35.13;100814.75;4990675;28;19926;-63
2021/03/29 07:45:24;;;;;;;2.85;1.63;;;;;;;19.31;34.90;100816.06;4990520;28;20046;-63
2021/03/29 07:47:57;;;;;;;5.15;2.25;;;;;;;19.42;35.02;100817.44;4986284;28;20042;-62
2021/03/29 07:50:24;;;;;;;7.10;3.45;;;;;;;19.60;34.60;100827.56;4983259;28;20043;-63
2021/03/29 07:52:55;;;;;;;15.05;3.45;;;;;;;19.65;34.92;100827.41;4990593;28;20069;-63
2021/03/29 07:55:23;;;;;;;5.82;2.45;;;;;;;19.72;34.83;100831.75;4991135;28;20042;-64
2021/03/29 07:57:50;;;;;;;7.50;3.50;;;;;;;19.65;34.76;100837.91;4989883;28;20070;-64
2021/03/29 08:00:22;;;;;;;12.63;2.40;;;;;;;19.63;35.12;100834.59;4990126;28;20050;-63
2021/03/29 08:02:53;;;;;;;9.40;3.70;;;;;;;19.54;35.25;100826.06;4990413;28;20452;-61
2021/03/29 08:05:39;;;;;;;7.80;3.72;;;;;;;19.65;35.28;100832.25;4990436;28;20496;-62
2021/03/29 08:08:25;;;;;;;6.60;2.70;;;;;;;19.68;35.27;100833.59;4990839;28;20042;-65
2021/03/29 08:10:59;;;;;;;12.65;4.07;;;;;;;19.69;35.91;100843.75;4981261;28;20129;-64
2021/03/29 08:13:42;;;;;;;12.55;3.58;;;;;;;19.54;35.69;100837.41;4989330;28;20042;-63
2021/03/29 08:16:11;;;;;;;4.30;2.47;;;;;;;19.40;35.65;100822.56;4988626;28;20050;-62
2021/03/29 08:19:12;;;;;;;8.15;2.38;;;;;;;19.38;35.50;100854.06;4986490;28;20046;-63
2021/03/29 08:21:49;;;;;;;9.10;3.45;;;;;;;19.49;35.70;100857.41;4985465;28;20042;-65
2021/03/29 08:24:31;;;;;;;3.13;1.77;;;;;;;19.47;35.73;100848.41;4986646;28;20046;-65
2021/03/29 08:27:00;;;;;;;8.02;2.55;;;;;;;19.46;35.83;100863.72;4993529;28;20054;-62
2021/03/29 08:29:28;;;;;;;8.40;2.75;;;;;;;19.36;35.93;100864.06;4991929;28;20525;-62
2021/03/29 08:32:16;;;;;;;6.85;1.98;;;;;;;19.12;35.99;100871.03;4993388;28;20049;-62
2021/03/29 08:34:47;;;;;;;5.75;2.00;;;;;;;19.01;36.36;100874.50;4987429;28;20145;-62
2021/03/29 08:37:17;;;;;;;4.57;1.70;;;;;;;18.91;35.79;100881.31;4993747;28;20050;-62
2021/03/29 08:39:45;;;;;;;;;;;;;;;18.64;36.19;100871.88;4994414;28;20133;-62
2021/03/29 08:42:13;;;;;;;4.93;2.08;;;;;;;18.84;36.15;100864.00;4994325;28;20004;-63
2021/03/29 08:44:42;;;;;;;5.22;2.33;;;;;;;18.95;36.02;100876.66;4993670;28;20055;-63
2021/03/29 08:47:27;;;;;;;5.38;1.60;;;;;;;18.89;35.51;100861.81;4993442;28;20056;-62
2021/03/29 08:50:03;;;;;;;3.58;2.60;;;;;;;19.15;35.82;100876.03;4988426;28;20137;-62
2021/03/29 08:52:42;;;;;;;7.63;3.05;;;;;;;19.63;35.01;100863.75;4993727;28;20050;-62
2021/03/29 08:55:14;;;;;;;2.47;2.03;;;;;;;20.05;34.67;100869.69;4993863;28;20569;-65
2021/03/29 08:57:41;;;;;;;9.88;2.67;;;;;;;20.34;34.06;100883.13;4993157;28;20046;-63
2021/03/29 09:00:15;;;;;;;11.50;3.88;;;;;;;20.44;33.75;100876.22;4993967;28;20069;-62
2021/03/29 09:02:42;;;;;;;5.07;2.80;;;;;;;20.19;33.70;100880.00;4993886;28;20042;-63
2021/03/29 09:05:11;;;;;;;6.65;3.10;;;;;;;20.17;33.99;100882.31;4993504;28;20062;-63
2021/03/29 09:07:43;;;;;;;3.90;1.87;;;;;;;19.91;33.86;100882.41;4993608;28;20058;-65
2021/03/29 09:10:20;;;;;;;2.20;1.77;;;;;;;19.65;34.29;100881.25;4993674;28;20212;-63
2021/03/29 09:12:54;;;;;;;6.65;2.13;;;;;;;19.68;34.50;100881.75;4992507;28;20410;-64
2021/03/29 09:15:21;;;;;;;6.07;2.70;;;;;;;19.49;34.90;100882.91;4990138;28;20046;-62
2021/03/29 09:18:03;;;;;;;12.45;3.22;;;;;;;19.38;35.25;100884.38;4993339;28;20054;-62
2021/03/29 09:20:32;;;;;;;4.80;2.28;;;;;;;19.38;34.75;100896.56;4988254;28;20062;-62
2021/03/29 09:22:59;;;;;;;3.50;2.03;;;;;;;19.39;35.17;100905.88;4992974;28;20508;-62
2021/03/29 09:25:29;;;;;;;3.65;1.70;;;;;;;19.37;35.08;100899.72;4991171;28;20108;-62
2021/03/29 09:28:25;;;;;;;13.77;3.38;;;;;;;19.32;35.31;100917.69;4993382;28;20134;-63
2021/03/29 09:31:19;;;;;;;12.50;2.92;;;;;;;19.36;35.42;100906.53;4986581;28;20133;-65
2021/03/29 09:33:47;;;;;;;4.25;1.80;;;;;;;19.48;35.42;100918.03;4990855;28;20046;-64
2021/03/29 09:36:19;;;;;;;12.55;2.97;;;;;;;19.33;35.82;100913.69;4991765;28;20121;-63
2021/03/29 09:38:50;;;;;;;10.77;2.03;;;;;;;19.14;35.91;100908.34;4989939;28;20046;-67
2021/03/29 09:41:24;;;;;;;9.40;3.08;;;;;;;19.04;36.08;100930.44;4991164;28;20452;-63
2021/03/29 09:43:53;;;;;;;3.58;2.35;;;;;;;19.01;36.28;100926.28;4992177;28;20043;-63
2021/03/29 09:46:26;;;;;;;7.45;2.10;;;;;;;18.88;36.67;100944.22;4992452;28;20057;-64
2021/03/29 09:49:05;;;;;;;4.85;1.95;;;;;;;18.70;37.04;100952.63;4992577;28;20133;-64
2021/03/29 09:51:32;;;;;;;3.28;1.73;;;;;;;18.65;37.23;100940.59;4984780;28;20046;-65
2021/03/29 09:53:58;;;;;;;8.57;3.00;;;;;;;18.58;37.48;100952.38;4990804;28;20058;-64
2021/03/29 09:56:29;;;;;;;3.53;1.15;;;;;;;18.56;37.42;100951.03;4990367;28;20050;-64
2021/03/29 09:58:55;;;;;;;4.65;2.00;;;;;;;18.50;37.83;100960.81;4989595;28;20042;-64
2021/03/29 10:01:25;;;;;;;2.47;1.63;;;;;;;18.55;37.91;100953.03;4991461;28;20039;-64
2021/03/29 10:03:57;;;;;;;3.92;2.20;;;;;;;18.55;37.73;100943.72;4991765;28;20054;-64
2021/03/29 10:06:26;;;;;;;1.60;1.38;;;;;;;18.64;38.16;100953.91;4991533;28;20130;-64
2021/03/29 10:09:03;;;;;;;8.02;2.47;;;;;;;18.19;41.78;100956.81;4988694;28;20053;-64
2021/03/29 10:11:46;;;;;;;4.37;2.03;;;;;;;17.66;44.38;100962.31;4991907;28;20133;-63
2021/03/29 10:14:16;;;;;;;4.73;2.37;;;;;;;17.59;44.30;100964.75;4988827;28;20042;-65
2021/03/29 10:16:52;;;;;;;8.30;3.20;;;;;;;17.65;44.79;100953.03;4991354;28;20573;-65
2021/03/29 10:19:19;;;;;;;9.50;3.80;;;;;;;17.82;44.75;100943.91;4986982;28;20052;-63
2021/03/29 10:22:19;;;;;;;10.83;3.73;;;;;;;17.98;43.93;100947.16;4990301;28;20554;-65
2021/03/29 10:24:57;;;;;;;5.33;2.83;;;;;;;18.16;43.43;100946.16;4984299;28;20046;-63
2021/03/29 10:27:25;;;;;;;7.47;3.70;;;;;;;18.17;43.73;100955.47;4966859;28;20043;-63
2021/03/29 10:29:54;;;;;;;7.00;2.10;;;;;;;18.37;43.11;100956.91;4985389;28;20042;-65
2021/03/29 10:32:21;;;;;;;9.20;3.10;;;;;;;18.48;43.04;100963.97;4995560;28;20062;-64
2021/03/29 10:34:49;;;;;;;14.47;5.43;;;;;;;18.61;43.13;100950.91;4988606;28;20058;-62
2021/03/29 10:37:31;;;;;;;9.55;5.32;;;;;;;18.76;43.00;100942.00;4988361;28;20073;-62
2021/03/29 10:40:00;;;;;;;13.93;5.90;;;;;;;18.97;42.21;100947.06;4982126;28;20380;-64
2021/03/29 10:42:31;;;;;;;7.38;4.78;;;;;;;19.11;41.76;100944.94;4986710;28;20407;-63
2021/03/29 10:44:57;;;;;;;12.37;5.70;;;;;;;19.30;41.22;100942.66;4989267;28;20076;-63
2021/03/29 10:47:24;;;;;;;7.97;3.92;;;;;;;19.25;40.89;100934.34;4989093;28;20142;-65
2021/03/29 10:49:53;;;;;;;16.63;4.97;;;;;;;19.36;40.90;100932.03;4990369;28;20049;-65
2021/03/29 10:52:21;;;;;;;9.93;3.90;;;;;;;19.38;39.92;100907.03;4988043;28;20375;-65
2021/03/29 10:54:49;;;;;;;11.60;6.10;;;;;;;19.62;39.93;100930.06;4988291;28;20069;-64
2021/03/29 10:57:15;;;;;;;21.52;6.40;;;;;;;19.66;39.47;100918.94;4989106;28;20140;-65
2021/03/29 10:59:42;;;;;;;11.52;5.10;;;;;;;19.78;39.40;100926.75;4982268;28;20510;-64
2021/03/29 11:02:09;;;;;;;9.70;3.08;;;;;;;19.36;38.69;100878.22;4990025;28;20053;-63
2021/03/29 11:04:36;;;;;;;10.68;3.28;;;;;;;19.84;38.81;100939.59;4990371;28;20120;-64
2021/03/29 11:07:03;;;;;;;3.90;2.35;;;;;;;19.87;38.73;100941.75;4989516;28;20043;-63
2021/03/29 11:09:29;;;;;;;11.32;3.70;;;;;;;19.99;38.13;100939.06;4990182;28;20057;-64
2021/03/29 11:11:55;;;;;;;6.82;3.35;;;;;;;20.11;38.39;100936.41;4990530;28;20126;-63
2021/03/29 11:14:22;;;;;;;12.52;4.72;;;;;;;20.22;38.44;100931.19;4981865;28;20042;-64
2021/03/29 11:16:52;;;;;;;12.27;4.68;;;;;;;20.49;37.67;100935.63;4988428;28;20046;-63
2021/03/29 11:19:20;;;;;;;15.45;2.90;;;;;;;20.48;37.88;100938.84;4991048;28;20038;-63
2021/03/29 11:21:49;;;;;;;9.65;3.92;;;;;;;20.69;37.39;100936.94;4992679;28;20049;-63
2021/03/29 11:24:16;;;;;;;;;;;;;;;20.90;37.25;100931.34;4986573;28;20055;-63
2021/03/29 11:26:43;;;;;;;6.97;3.55;;;;;;;21.16;37.06;100936.91;4985887;28;19925;-63
2021/03/29 11:29:09;;;;;;;3.08;1.60;;;;;;;21.31;36.11;100941.13;4988691;28;20402;-64
2021/03/29 11:31:42;;;;;;;19.55;3.38;;;;;;;21.42;35.76;100933.91;4979422;28;20050;-63
2021/03/29 11:34:11;;;;;;;2.50;1.60;;;;;;;21.59;35.44;100912.22;4990461;28;20061;-63
2021/03/29 11:36:38;;;;;;;11.32;4.78;;;;;;;21.95;34.86;100923.78;4990963;28;20053;-63
2021/03/29 11:39:07;;;;;;;7.05;2.45;;;;;;;22.22;34.62;100912.97;4990494;28;20046;-63
2021/03/29 11:41:34;;;;;;;4.88;2.35;;;;;;;22.44;33.90;100889.81;4985663;28;20054;-66